Franklin, Vermont
Current Conditions -  °F | °C
As of 2:15 PM on Saturday 25 Oct 2014 (Local Time) from KFSO Reporting Station
Overcast Overcast  
Wind Chill: 55°   Ceiling: 5000
Heat Index: 55°   Visibility: 10mi
Dew Point: 43°   Wind: 6mph
Humidity: 62%   Direction: 220°SW
Pressure: 29.58"   Gusts: NA
Location:  44.98°N, 72.92°W
Report Text: KFSO 251815Z AUTO 22005KT 10SM OVC050 13/06 A2958 RMK AO2 T01300059
Loading
Personal Weather Stations






























Interactive Weather Map
Tropical Storm Tracking
New forecast layout! Learn more

10-Day Weather Forecast

Advertisements
Track Severe Weather on mobile